sensor_id;sensor_type;location;lat;lon;timestamp;P1;durP1;ratioP1;P2;durP2;ratioP2
41966;SDS011;27656;53.068;8.818;2023-03-01T00:02:23;16.37;;;10.20;;
41966;SDS011;27656;53.068;8.818;2023-03-01T00:04:50;20.97;;;11.10;;
41966;SDS011;27656;53.068;8.818;2023-03-01T00:07:16;19.10;;;9.70;;
41966;SDS011;27656;53.068;8.818;2023-03-01T00:09:42;19.53;;;10.10;;
41966;SDS011;27656;53.068;8.818;2023-03-01T00:12:11;19.37;;;10.37;;
41966;SDS011;27656;53.068;8.818;2023-03-01T00:14:38;17.37;;;9.13;;
41966;SDS011;27656;53.068;8.818;2023-03-01T00:17:04;17.53;;;10.03;;
41966;SDS011;27656;53.068;8.818;2023-03-01T00:19:31;19.80;;;10.17;;
41966;SDS011;27656;53.068;8.818;2023-03-01T00:21:58;14.03;;;9.43;;
41966;SDS011;27656;53.068;8.818;2023-03-01T00:24:24;13.70;;;8.73;;
41966;SDS011;27656;53.068;8.818;2023-03-01T00:26:54;19.77;;;9.47;;
41966;SDS011;27656;53.068;8.818;2023-03-01T00:29:22;17.80;;;9.47;;
41966;SDS011;27656;53.068;8.818;2023-03-01T00:31:52;15.13;;;9.60;;
41966;SDS011;27656;53.068;8.818;2023-03-01T00:34:18;18.00;;;9.00;;
41966;SDS011;27656;53.068;8.818;2023-03-01T00:36:45;16.93;;;9.50;;
41966;SDS011;27656;53.068;8.818;2023-03-01T00:39:12;19.33;;;10.93;;
41966;SDS011;27656;53.068;8.818;2023-03-01T00:41:40;18.03;;;9.90;;
41966;SDS011;27656;53.068;8.818;2023-03-01T00:44:07;20.80;;;10.27;;
41966;SDS011;27656;53.068;8.818;2023-03-01T00:46:34;18.50;;;10.17;;
41966;SDS011;27656;53.068;8.818;2023-03-01T00:49:01;19.57;;;11.10;;
41966;SDS011;27656;53.068;8.818;2023-03-01T00:51:28;21.97;;;11.43;;
41966;SDS011;27656;53.068;8.818;2023-03-01T00:53:56;18.13;;;10.40;;
41966;SDS011;27656;53.068;8.818;2023-03-01T00:56:23;20.87;;;10.47;;
41966;SDS011;27656;53.068;8.818;2023-03-01T00:58:50;19.63;;;10.33;;
41966;SDS011;27656;53.068;8.818;2023-03-01T01:01:21;18.80;;;9.43;;
41966;SDS011;27656;53.068;8.818;2023-03-01T01:04:11;21.37;;;10.30;;
41966;SDS011;27656;53.068;8.818;2023-03-01T01:06:41;19.80;;;9.27;;
41966;SDS011;27656;53.068;8.818;2023-03-01T01:09:09;18.23;;;9.87;;
41966;SDS011;27656;53.068;8.818;2023-03-01T01:11:43;18.37;;;9.77;;
41966;SDS011;27656;53.068;8.818;2023-03-01T01:14:11;16.37;;;9.53;;
41966;SDS011;27656;53.068;8.818;2023-03-01T01:16:37;18.10;;;9.23;;
41966;SDS011;27656;53.068;8.818;2023-03-01T01:19:04;18.47;;;8.97;;
41966;SDS011;27656;53.068;8.818;2023-03-01T01:21:30;15.83;;;9.30;;
41966;SDS011;27656;53.068;8.818;2023-03-01T01:23:57;17.63;;;8.97;;
41966;SDS011;27656;53.068;8.818;2023-03-01T01:26:25;17.30;;;8.90;;
41966;SDS011;27656;53.068;8.818;2023-03-01T01:28:54;15.80;;;8.87;;
41966;SDS011;27656;53.068;8.818;2023-03-01T01:31:20;17.30;;;9.50;;
41966;SDS011;27656;53.068;8.818;2023-03-01T01:33:50;15.37;;;8.90;;
41966;SDS011;27656;53.068;8.818;2023-03-01T01:36:17;17.80;;;9.13;;
41966;SDS011;27656;53.068;8.818;2023-03-01T01:38:44;16.67;;;9.03;;
41966;SDS011;27656;53.068;8.818;2023-03-01T01:41:11;13.67;;;8.63;;
41966;SDS011;27656;53.068;8.818;2023-03-01T01:43:39;18.43;;;8.93;;
41966;SDS011;27656;53.068;8.818;2023-03-01T01:48:58;16.90;;;9.07;;
41966;SDS011;27656;53.068;8.818;2023-03-01T01:51:31;21.57;;;9.07;;
41966;SDS011;27656;53.068;8.818;2023-03-01T01:54:24;18.93;;;8.93;;
41966;SDS011;27656;53.068;8.818;2023-03-01T01:56:59;17.00;;;8.97;;
41966;SDS011;27656;53.068;8.818;2023-03-01T01:59:27;19.80;;;9.87;;
41966;SDS011;27656;53.068;8.818;2023-03-01T02:01:55;18.63;;;9.30;;
41966;SDS011;27656;53.068;8.818;2023-03-01T02:04:21;16.33;;;9.23;;
41966;SDS011;27656;53.068;8.818;2023-03-01T02:06:53;13.97;;;9.27;;
41966;SDS011;27656;53.068;8.818;2023-03-01T02:09:24;16.00;;;8.77;;
41966;SDS011;27656;53.068;8.818;2023-03-01T02:11:50;19.20;;;9.20;;
41966;SDS011;27656;53.068;8.818;2023-03-01T02:14:17;16.03;;;8.53;;
41966;SDS011;27656;53.068;8.818;2023-03-01T02:16:43;16.50;;;9.27;;
41966;SDS011;27656;53.068;8.818;2023-03-01T02:19:13;15.47;;;9.70;;
41966;SDS011;27656;53.068;8.818;2023-03-01T02:27:08;19.20;;;10.00;;
41966;SDS011;27656;53.068;8.818;2023-03-01T02:29:35;15.93;;;9.23;;
41966;SDS011;27656;53.068;8.818;2023-03-01T02:32:02;14.70;;;9.43;;
41966;SDS011;27656;53.068;8.818;2023-03-01T02:34:30;17.07;;;9.77;;
41966;SDS011;27656;53.068;8.818;2023-03-01T02:37:02;19.83;;;9.63;;
41966;SDS011;27656;53.068;8.818;2023-03-01T02:39:33;15.77;;;9.23;;
41966;SDS011;27656;53.068;8.818;2023-03-01T02:42:03;16.37;;;8.97;;
41966;SDS011;27656;53.068;8.818;2023-03-01T02:44:30;15.50;;;9.37;;
41966;SDS011;27656;53.068;8.818;2023-03-01T02:46:56;14.27;;;8.90;;
41966;SDS011;27656;53.068;8.818;2023-03-01T02:49:28;16.43;;;9.60;;
41966;SDS011;27656;53.068;8.818;2023-03-01T02:54:58;17.63;;;9.53;;
41966;SDS011;27656;53.068;8.818;2023-03-01T02:57:27;17.70;;;9.93;;
41966;SDS011;27656;53.068;8.818;2023-03-01T02:59:54;14.77;;;8.97;;
41966;SDS011;27656;53.068;8.818;2023-03-01T03:02:25;12.10;;;8.83;;
41966;SDS011;27656;53.068;8.818;2023-03-01T03:05:08;17.83;;;8.97;;
41966;SDS011;27656;53.068;8.818;2023-03-01T03:07:37;16.07;;;8.93;;
41966;SDS011;27656;53.068;8.818;2023-03-01T03:10:06;15.07;;;9.03;;
41966;SDS011;27656;53.068;8.818;2023-03-01T03:12:34;15.90;;;9.50;;
41966;SDS011;27656;53.068;8.818;2023-03-01T03:15:01;15.83;;;10.07;;
41966;SDS011;27656;53.068;8.818;2023-03-01T03:17:27;17.90;;;9.73;;
41966;SDS011;27656;53.068;8.818;2023-03-01T03:19:53;14.30;;;9.63;;
41966;SDS011;27656;53.068;8.818;2023-03-01T03:22:20;16.70;;;9.87;;
41966;SDS011;27656;53.068;8.818;2023-03-01T03:24:46;15.13;;;10.50;;
41966;SDS011;27656;53.068;8.818;2023-03-01T03:27:13;19.27;;;10.13;;
41966;SDS011;27656;53.068;8.818;2023-03-01T03:29:39;17.17;;;9.77;;
41966;SDS011;27656;53.068;8.818;2023-03-01T03:32:05;17.50;;;9.63;;
41966;SDS011;27656;53.068;8.818;2023-03-01T03:34:33;16.37;;;9.67;;
41966;SDS011;27656;53.068;8.818;2023-03-01T03:36:59;20.40;;;10.03;;
41966;SDS011;27656;53.068;8.818;2023-03-01T03:39:26;14.33;;;9.13;;
41966;SDS011;27656;53.068;8.818;2023-03-01T03:41:53;14.00;;;9.03;;
41966;SDS011;27656;53.068;8.818;2023-03-01T03:44:20;18.00;;;10.20;;
41966;SDS011;27656;53.068;8.818;2023-03-01T03:46:47;21.37;;;10.53;;
41966;SDS011;27656;53.068;8.818;2023-03-01T03:49:13;19.03;;;9.40;;
41966;SDS011;27656;53.068;8.818;2023-03-01T03:51:40;19.60;;;10.23;;
41966;SDS011;27656;53.068;8.818;2023-03-01T03:54:06;22.53;;;10.27;;
41966;SDS011;27656;53.068;8.818;2023-03-01T03:56:33;19.90;;;11.03;;
41966;SDS011;27656;53.068;8.818;2023-03-01T03:58:59;23.00;;;11.47;;
41966;SDS011;27656;53.068;8.818;2023-03-01T04:01:26;23.17;;;11.67;;
41966;SDS011;27656;53.068;8.818;2023-03-01T04:03:52;19.20;;;10.90;;
41966;SDS011;27656;53.068;8.818;2023-03-01T04:06:20;24.50;;;11.07;;
41966;SDS011;27656;53.068;8.818;2023-03-01T04:08:46;22.10;;;11.87;;
41966;SDS011;27656;53.068;8.818;2023-03-01T04:11:17;18.60;;;11.07;;
41966;SDS011;27656;53.068;8.818;2023-03-01T04:13:52;22.70;;;11.60;;
41966;SDS011;27656;53.068;8.818;2023-03-01T04:16:20;20.50;;;10.40;;
41966;SDS011;27656;53.068;8.818;2023-03-01T04:18:47;21.27;;;11.00;;
41966;SDS011;27656;53.068;8.818;2023-03-01T04:21:13;18.57;;;10.83;;
41966;SDS011;27656;53.068;8.818;2023-03-01T04:23:40;24.57;;;10.40;;
41966;SDS011;27656;53.068;8.818;2023-03-01T04:26:07;24.20;;;11.23;;
41966;SDS011;27656;53.068;8.818;2023-03-01T04:28:34;20.40;;;11.60;;
41966;SDS011;27656;53.068;8.818;2023-03-01T04:31:04;21.10;;;11.63;;
41966;SDS011;27656;53.068;8.818;2023-03-01T04:33:42;20.73;;;11.27;;
41966;SDS011;27656;53.068;8.818;2023-03-01T04:36:11;18.97;;;11.53;;
41966;SDS011;27656;53.068;8.818;2023-03-01T04:38:38;21.63;;;10.40;;
41966;SDS011;27656;53.068;8.818;2023-03-01T04:41:06;17.50;;;10.07;;
41966;SDS011;27656;53.068;8.818;2023-03-01T04:43:34;20.30;;;10.90;;
41966;SDS011;27656;53.068;8.818;2023-03-01T04:46:02;21.73;;;11.40;;
41966;SDS011;27656;53.068;8.818;2023-03-01T04:48:41;23.77;;;11.03;;
41966;SDS011;27656;53.068;8.818;2023-03-01T04:51:09;21.67;;;11.17;;
41966;SDS011;27656;53.068;8.818;2023-03-01T04:53:36;20.20;;;10.57;;
41966;SDS011;27656;53.068;8.818;2023-03-01T04:56:04;18.07;;;11.23;;
41966;SDS011;27656;53.068;8.818;2023-03-01T04:58:31;20.70;;;10.97;;
41966;SDS011;27656;53.068;8.818;2023-03-01T05:00:58;23.83;;;11.63;;
41966;SDS011;27656;53.068;8.818;2023-03-01T05:03:24;23.73;;;10.77;;
41966;SDS011;27656;53.068;8.818;2023-03-01T05:05:51;21.67;;;11.00;;
41966;SDS011;27656;53.068;8.818;2023-03-01T05:08:18;21.30;;;11.10;;
41966;SDS011;27656;53.068;8.818;2023-03-01T05:10:50;18.77;;;10.03;;
41966;SDS011;27656;53.068;8.818;2023-03-01T05:13:18;15.73;;;10.13;;
41966;SDS011;27656;53.068;8.818;2023-03-01T05:15:49;18.37;;;10.87;;
41966;SDS011;27656;53.068;8.818;2023-03-01T05:18:20;19.07;;;10.70;;
41966;SDS011;27656;53.068;8.818;2023-03-01T05:20:47;20.63;;;10.67;;
41966;SDS011;27656;53.068;8.818;2023-03-01T05:23:13;19.27;;;10.13;;
41966;SDS011;27656;53.068;8.818;2023-03-01T05:25:40;18.90;;;10.07;;
41966;SDS011;27656;53.068;8.818;2023-03-01T05:28:07;18.70;;;10.70;;
41966;SDS011;27656;53.068;8.818;2023-03-01T05:30:37;16.83;;;10.07;;
41966;SDS011;27656;53.068;8.818;2023-03-01T05:33:05;17.77;;;10.60;;
41966;SDS011;27656;53.068;8.818;2023-03-01T05:35:36;19.77;;;10.57;;
41966;SDS011;27656;53.068;8.818;2023-03-01T05:38:03;18.43;;;10.57;;
41966;SDS011;27656;53.068;8.818;2023-03-01T05:40:29;23.23;;;10.50;;
41966;SDS011;27656;53.068;8.818;2023-03-01T05:42:56;16.67;;;10.20;;
41966;SDS011;27656;53.068;8.818;2023-03-01T05:45:23;19.17;;;9.70;;
41966;SDS011;27656;53.068;8.818;2023-03-01T05:47:51;19.00;;;10.83;;
41966;SDS011;27656;53.068;8.818;2023-03-01T05:50:19;20.63;;;10.40;;
41966;SDS011;27656;53.068;8.818;2023-03-01T05:52:52;18.87;;;10.27;;
41966;SDS011;27656;53.068;8.818;2023-03-01T05:55:24;20.77;;;10.80;;
41966;SDS011;27656;53.068;8.818;2023-03-01T05:57:52;29.73;;;11.60;;
41966;SDS011;27656;53.068;8.818;2023-03-01T06:00:19;22.43;;;10.67;;
41966;SDS011;27656;53.068;8.818;2023-03-01T06:02:48;21.07;;;10.30;;
41966;SDS011;27656;53.068;8.818;2023-03-01T06:05:15;19.70;;;10.43;;
41966;SDS011;27656;53.068;8.818;2023-03-01T06:07:41;18.70;;;10.33;;
41966;SDS011;27656;53.068;8.818;2023-03-01T06:10:08;18.70;;;10.97;;
41966;SDS011;27656;53.068;8.818;2023-03-01T06:12:37;16.60;;;10.07;;
41966;SDS011;27656;53.068;8.818;2023-03-01T06:15:05;21.43;;;10.57;;
41966;SDS011;27656;53.068;8.818;2023-03-01T06:17:32;15.63;;;9.93;;
41966;SDS011;27656;53.068;8.818;2023-03-01T06:20:04;18.53;;;10.60;;
41966;SDS011;27656;53.068;8.818;2023-03-01T06:22:31;20.70;;;11.40;;
41966;SDS011;27656;53.068;8.818;2023-03-01T06:24:58;18.97;;;10.20;;
41966;SDS011;27656;53.068;8.818;2023-03-01T06:27:24;19.53;;;10.37;;
41966;SDS011;27656;53.068;8.818;2023-03-01T06:29:51;15.17;;;10.00;;
41966;SDS011;27656;53.068;8.818;2023-03-01T06:32:18;19.40;;;10.37;;
41966;SDS011;27656;53.068;8.818;2023-03-01T06:34:44;20.63;;;10.57;;
41966;SDS011;27656;53.068;8.818;2023-03-01T06:37:11;14.90;;;8.90;;
41966;SDS011;27656;53.068;8.818;2023-03-01T06:39:37;21.33;;;10.23;;
41966;SDS011;27656;53.068;8.818;2023-03-01T06:42:03;15.97;;;9.67;;
41966;SDS011;27656;53.068;8.818;2023-03-01T06:44:30;18.40;;;10.27;;
41966;SDS011;27656;53.068;8.818;2023-03-01T06:46:57;19.23;;;10.10;;
41966;SDS011;27656;53.068;8.818;2023-03-01T06:49:23;19.50;;;10.53;;
41966;SDS011;27656;53.068;8.818;2023-03-01T06:51:49;20.27;;;9.63;;
41966;SDS011;27656;53.068;8.818;2023-03-01T06:54:16;16.47;;;10.20;;
41966;SDS011;27656;53.068;8.818;2023-03-01T06:56:46;16.63;;;9.80;;
41966;SDS011;27656;53.068;8.818;2023-03-01T06:59:12;16.43;;;9.73;;
41966;SDS011;27656;53.068;8.818;2023-03-01T07:01:39;18.77;;;10.77;;
41966;SDS011;27656;53.068;8.818;2023-03-01T07:04:06;17.30;;;9.87;;
41966;SDS011;27656;53.068;8.818;2023-03-01T07:06:32;16.60;;;10.40;;
41966;SDS011;27656;53.068;8.818;2023-03-01T07:08:59;16.93;;;10.80;;
41966;SDS011;27656;53.068;8.818;2023-03-01T07:11:25;16.60;;;10.27;;
41966;SDS011;27656;53.068;8.818;2023-03-01T07:13:52;17.77;;;11.37;;
41966;SDS011;27656;53.068;8.818;2023-03-01T07:16:18;19.23;;;10.67;;
41966;SDS011;27656;53.068;8.818;2023-03-01T07:18:46;19.33;;;10.93;;
41966;SDS011;27656;53.068;8.818;2023-03-01T07:21:13;20.70;;;10.63;;
41966;SDS011;27656;53.068;8.818;2023-03-01T07:23:41;19.87;;;10.93;;
41966;SDS011;27656;53.068;8.818;2023-03-01T07:26:07;17.23;;;10.20;;
41966;SDS011;27656;53.068;8.818;2023-03-01T07:28:33;16.30;;;10.37;;
41966;SDS011;27656;53.068;8.818;2023-03-01T07:31:05;18.73;;;10.57;;
41966;SDS011;27656;53.068;8.818;2023-03-01T07:33:32;18.47;;;9.40;;
41966;SDS011;27656;53.068;8.818;2023-03-01T07:36:00;15.60;;;9.20;;
41966;SDS011;27656;53.068;8.818;2023-03-01T07:38:28;17.43;;;9.70;;
41966;SDS011;27656;53.068;8.818;2023-03-01T07:40:59;18.50;;;10.50;;
41966;SDS011;27656;53.068;8.818;2023-03-01T07:43:27;18.60;;;10.30;;
41966;SDS011;27656;53.068;8.818;2023-03-01T07:45:54;18.13;;;10.17;;
41966;SDS011;27656;53.068;8.818;2023-03-01T07:48:20;18.93;;;10.07;;
41966;SDS011;27656;53.068;8.818;2023-03-01T07:50:47;13.20;;;9.53;;
41966;SDS011;27656;53.068;8.818;2023-03-01T07:53:13;17.03;;;10.67;;
41966;SDS011;27656;53.068;8.818;2023-03-01T07:55:39;19.60;;;11.07;;
41966;SDS011;27656;53.068;8.818;2023-03-01T07:58:06;16.87;;;10.67;;
41966;SDS011;27656;53.068;8.818;2023-03-01T08:00:32;16.73;;;10.90;;
41966;SDS011;27656;53.068;8.818;2023-03-01T08:02:59;15.90;;;10.33;;
41966;SDS011;27656;53.068;8.818;2023-03-01T08:05:27;20.87;;;11.53;;
41966;SDS011;27656;53.068;8.818;2023-03-01T08:07:54;21.47;;;11.77;;
41966;SDS011;27656;53.068;8.818;2023-03-01T08:10:21;22.40;;;11.20;;
41966;SDS011;27656;53.068;8.818;2023-03-01T08:12:47;22.33;;;11.90;;
41966;SDS011;27656;53.068;8.818;2023-03-01T08:15:13;22.30;;;12.97;;
41966;SDS011;27656;53.068;8.818;2023-03-01T08:17:40;22.63;;;11.77;;
41966;SDS011;27656;53.068;8.818;2023-03-01T08:20:06;21.13;;;11.57;;
41966;SDS011;27656;53.068;8.818;2023-03-01T08:22:33;16.17;;;11.23;;
41966;SDS011;27656;53.068;8.818;2023-03-01T08:25:00;23.77;;;12.93;;
41966;SDS011;27656;53.068;8.818;2023-03-01T08:27:26;19.40;;;11.53;;
41966;SDS011;27656;53.068;8.818;2023-03-01T08:29:52;18.30;;;11.20;;
41966;SDS011;27656;53.068;8.818;2023-03-01T08:32:19;16.87;;;10.63;;
41966;SDS011;27656;53.068;8.818;2023-03-01T08:34:46;20.00;;;11.50;;
41966;SDS011;27656;53.068;8.818;2023-03-01T08:37:13;19.17;;;11.23;;
41966;SDS011;27656;53.068;8.818;2023-03-01T08:39:39;22.97;;;12.30;;
41966;SDS011;27656;53.068;8.818;2023-03-01T08:42:06;21.30;;;12.20;;
41966;SDS011;27656;53.068;8.818;2023-03-01T08:44:32;22.30;;;12.20;;
41966;SDS011;27656;53.068;8.818;2023-03-01T08:46:59;19.67;;;11.90;;
41966;SDS011;27656;53.068;8.818;2023-03-01T08:49:26;21.53;;;11.73;;
41966;SDS011;27656;53.068;8.818;2023-03-01T08:51:52;19.90;;;11.87;;
41966;SDS011;27656;53.068;8.818;2023-03-01T08:54:20;18.43;;;11.03;;
41966;SDS011;27656;53.068;8.818;2023-03-01T08:56:47;18.00;;;11.53;;
41966;SDS011;27656;53.068;8.818;2023-03-01T08:59:15;20.73;;;10.90;;
41966;SDS011;27656;53.068;8.818;2023-03-01T09:01:43;17.77;;;11.50;;
41966;SDS011;27656;53.068;8.818;2023-03-01T09:04:10;21.53;;;11.27;;
41966;SDS011;27656;53.068;8.818;2023-03-01T09:06:37;20.07;;;11.73;;
41966;SDS011;27656;53.068;8.818;2023-03-01T09:09:04;21.33;;;12.13;;
41966;SDS011;27656;53.068;8.818;2023-03-01T09:11:31;18.77;;;11.80;;
41966;SDS011;27656;53.068;8.818;2023-03-01T09:13:57;22.77;;;12.03;;
41966;SDS011;27656;53.068;8.818;2023-03-01T09:16:24;19.97;;;12.13;;
41966;SDS011;27656;53.068;8.818;2023-03-01T09:18:54;20.23;;;12.73;;
41966;SDS011;27656;53.068;8.818;2023-03-01T09:21:21;19.00;;;11.83;;
41966;SDS011;27656;53.068;8.818;2023-03-01T09:24:04;20.43;;;11.00;;
41966;SDS011;27656;53.068;8.818;2023-03-01T09:26:30;16.43;;;9.00;;
41966;SDS011;27656;53.068;8.818;2023-03-01T09:28:57;17.97;;;11.23;;
41966;SDS011;27656;53.068;8.818;2023-03-01T09:31:24;19.70;;;10.87;;
41966;SDS011;27656;53.068;8.818;2023-03-01T09:33:51;13.70;;;9.03;;
41966;SDS011;27656;53.068;8.818;2023-03-01T09:36:20;18.30;;;8.20;;
41966;SDS011;27656;53.068;8.818;2023-03-01T09:38:48;14.03;;;5.13;;
41966;SDS011;27656;53.068;8.818;2023-03-01T09:43:45;8.40;;;3.97;;
41966;SDS011;27656;53.068;8.818;2023-03-01T09:46:14;6.90;;;4.40;;
41966;SDS011;27656;53.068;8.818;2023-03-01T09:48:52;11.23;;;4.70;;
41966;SDS011;27656;53.068;8.818;2023-03-01T09:51:24;12.17;;;5.67;;
41966;SDS011;27656;53.068;8.818;2023-03-01T09:53:53;12.63;;;6.03;;
41966;SDS011;27656;53.068;8.818;2023-03-01T09:56:24;7.70;;;5.17;;
41966;SDS011;27656;53.068;8.818;2023-03-01T10:01:58;7.83;;;5.40;;
41966;SDS011;27656;53.068;8.818;2023-03-01T10:04:47;8.97;;;5.37;;
41966;SDS011;27656;53.068;8.818;2023-03-01T10:07:30;8.63;;;4.17;;
41966;SDS011;27656;53.068;8.818;2023-03-01T10:10:04;6.33;;;3.60;;
41966;SDS011;27656;53.068;8.818;2023-03-01T10:12:37;5.90;;;3.47;;
41966;SDS011;27656;53.068;8.818;2023-03-01T10:17:36;5.43;;;3.37;;
41966;SDS011;27656;53.068;8.818;2023-03-01T10:20:29;8.33;;;3.90;;
41966;SDS011;27656;53.068;8.818;2023-03-01T10:23:02;8.80;;;3.27;;
41966;SDS011;27656;53.068;8.818;2023-03-01T10:25:44;7.83;;;3.27;;
41966;SDS011;27656;53.068;8.818;2023-03-01T10:30:46;5.20;;;3.23;;
41966;SDS011;27656;53.068;8.818;2023-03-01T10:33:35;6.27;;;3.37;;
41966;SDS011;27656;53.068;8.818;2023-03-01T10:36:01;7.07;;;3.43;;
41966;SDS011;27656;53.068;8.818;2023-03-01T10:38:30;6.60;;;4.70;;
41966;SDS011;27656;53.068;8.818;2023-03-01T10:40:58;9.13;;;5.97;;
41966;SDS011;27656;53.068;8.818;2023-03-01T10:43:46;9.43;;;6.90;;
41966;SDS011;27656;53.068;8.818;2023-03-01T10:51:47;10.10;;;6.63;;
41966;SDS011;27656;53.068;8.818;2023-03-01T10:56:59;13.97;;;8.33;;
41966;SDS011;27656;53.068;8.818;2023-03-01T10:59:28;13.70;;;7.80;;
41966;SDS011;27656;53.068;8.818;2023-03-01T11:02:04;11.90;;;7.80;;
41966;SDS011;27656;53.068;8.818;2023-03-01T11:04:56;13.10;;;8.27;;
41966;SDS011;27656;53.068;8.818;2023-03-01T11:07:27;12.47;;;7.63;;
41966;SDS011;27656;53.068;8.818;2023-03-01T11:09:54;11.60;;;7.80;;
41966;SDS011;27656;53.068;8.818;2023-03-01T11:12:21;14.27;;;8.33;;
41966;SDS011;27656;53.068;8.818;2023-03-01T11:14:48;12.73;;;8.37;;
41966;SDS011;27656;53.068;8.818;2023-03-01T11:17:23;13.13;;;8.20;;
41966;SDS011;27656;53.068;8.818;2023-03-01T11:22:48;14.20;;;8.07;;
41966;SDS011;27656;53.068;8.818;2023-03-01T11:25:19;13.77;;;8.13;;
41966;SDS011;27656;53.068;8.818;2023-03-01T11:27:48;12.17;;;7.67;;
41966;SDS011;27656;53.068;8.818;2023-03-01T11:30:18;21.20;;;9.13;;
41966;SDS011;27656;53.068;8.818;2023-03-01T11:35:21;13.30;;;8.23;;
41966;SDS011;27656;53.068;8.818;2023-03-01T11:37:56;12.63;;;8.40;;
41966;SDS011;27656;53.068;8.818;2023-03-01T11:40:33;14.17;;;8.33;;
41966;SDS011;27656;53.068;8.818;2023-03-01T11:51:18;13.07;;;8.77;;
41966;SDS011;27656;53.068;8.818;2023-03-01T11:56:43;15.07;;;9.00;;
41966;SDS011;27656;53.068;8.818;2023-03-01T11:59:24;16.37;;;9.97;;
41966;SDS011;27656;53.068;8.818;2023-03-01T12:05:19;13.57;;;9.07;;
41966;SDS011;27656;53.068;8.818;2023-03-01T12:11:01;14.27;;;9.67;;
41966;SDS011;27656;53.068;8.818;2023-03-01T12:16:25;15.77;;;10.87;;
41966;SDS011;27656;53.068;8.818;2023-03-01T12:22:07;16.67;;;10.40;;
41966;SDS011;27656;53.068;8.818;2023-03-01T12:25:01;15.83;;;10.10;;
41966;SDS011;27656;53.068;8.818;2023-03-01T12:33:32;16.53;;;10.10;;
41966;SDS011;27656;53.068;8.818;2023-03-01T12:36:12;13.00;;;8.77;;
41966;SDS011;27656;53.068;8.818;2023-03-01T12:41:32;13.20;;;9.00;;
41966;SDS011;27656;53.068;8.818;2023-03-01T12:44:31;17.00;;;9.47;;
41966;SDS011;27656;53.068;8.818;2023-03-01T12:49:56;16.53;;;9.47;;
41966;SDS011;27656;53.068;8.818;2023-03-01T12:52:41;15.97;;;10.50;;
41966;SDS011;27656;53.068;8.818;2023-03-01T12:55:43;14.33;;;9.70;;
41966;SDS011;27656;53.068;8.818;2023-03-01T12:58:22;15.77;;;9.67;;
41966;SDS011;27656;53.068;8.818;2023-03-01T13:06:08;15.00;;;9.50;;
41966;SDS011;27656;53.068;8.818;2023-03-01T13:08:49;15.13;;;9.10;;
41966;SDS011;27656;53.068;8.818;2023-03-01T13:11:26;13.57;;;9.57;;
41966;SDS011;27656;53.068;8.818;2023-03-01T13:14:08;15.87;;;10.17;;
41966;SDS011;27656;53.068;8.818;2023-03-01T13:16:49;12.70;;;9.10;;
41966;SDS011;27656;53.068;8.818;2023-03-01T13:19:24;12.37;;;9.00;;
41966;SDS011;27656;53.068;8.818;2023-03-01T13:21:53;15.53;;;9.30;;
41966;SDS011;27656;53.068;8.818;2023-03-01T13:24:27;12.47;;;9.20;;
41966;SDS011;27656;53.068;8.818;2023-03-01T13:29:46;14.70;;;8.77;;
41966;SDS011;27656;53.068;8.818;2023-03-01T13:32:30;13.83;;;9.03;;
41966;SDS011;27656;53.068;8.818;2023-03-01T13:37:46;14.83;;;9.90;;
41966;SDS011;27656;53.068;8.818;2023-03-01T13:42:48;12.43;;;8.63;;
41966;SDS011;27656;53.068;8.818;2023-03-01T13:48:04;11.17;;;8.50;;
41966;SDS011;27656;53.068;8.818;2023-03-01T13:50:57;12.77;;;9.03;;
41966;SDS011;27656;53.068;8.818;2023-03-01T13:53:27;12.33;;;8.67;;
41966;SDS011;27656;53.068;8.818;2023-03-01T13:56:17;11.83;;;8.17;;
41966;SDS011;27656;53.068;8.818;2023-03-01T13:58:46;13.47;;;8.17;;
41966;SDS011;27656;53.068;8.818;2023-03-01T14:01:23;12.87;;;9.00;;
41966;SDS011;27656;53.068;8.818;2023-03-01T14:03:57;14.27;;;9.63;;
41966;SDS011;27656;53.068;8.818;2023-03-01T14:06:25;14.83;;;9.43;;
41966;SDS011;27656;53.068;8.818;2023-03-01T14:09:27;11.93;;;7.93;;
41966;SDS011;27656;53.068;8.818;2023-03-01T14:19:36;14.90;;;8.37;;
41966;SDS011;27656;53.068;8.818;2023-03-01T14:22:06;12.27;;;8.23;;
41966;SDS011;27656;53.068;8.818;2023-03-01T14:24:55;11.13;;;8.20;;
41966;SDS011;27656;53.068;8.818;2023-03-01T14:27:28;11.53;;;8.03;;
41966;SDS011;27656;53.068;8.818;2023-03-01T14:30:03;12.37;;;8.83;;
41966;SDS011;27656;53.068;8.818;2023-03-01T14:32:51;11.27;;;7.90;;
41966;SDS011;27656;53.068;8.818;2023-03-01T14:35:20;11.50;;;7.90;;
41966;SDS011;27656;53.068;8.818;2023-03-01T14:37:49;13.07;;;9.23;;
41966;SDS011;27656;53.068;8.818;2023-03-01T14:40:20;13.90;;;8.63;;
41966;SDS011;27656;53.068;8.818;2023-03-01T14:42:58;14.67;;;10.47;;
41966;SDS011;27656;53.068;8.818;2023-03-01T14:45:28;14.00;;;10.17;;
41966;SDS011;27656;53.068;8.818;2023-03-01T14:47:58;14.33;;;9.67;;
41966;SDS011;27656;53.068;8.818;2023-03-01T14:50:30;15.00;;;10.10;;
41966;SDS011;27656;53.068;8.818;2023-03-01T14:52:58;14.23;;;10.07;;
41966;SDS011;27656;53.068;8.818;2023-03-01T14:55:30;17.10;;;10.90;;
41966;SDS011;27656;53.068;8.818;2023-03-01T14:57:58;14.43;;;10.30;;
41966;SDS011;27656;53.068;8.818;2023-03-01T15:00:29;17.70;;;10.47;;
41966;SDS011;27656;53.068;8.818;2023-03-01T15:02:56;14.30;;;10.53;;
41966;SDS011;27656;53.068;8.818;2023-03-01T15:05:30;14.80;;;10.67;;
41966;SDS011;27656;53.068;8.818;2023-03-01T15:07:58;15.07;;;9.97;;
41966;SDS011;27656;53.068;8.818;2023-03-01T15:10:27;16.17;;;10.73;;
41966;SDS011;27656;53.068;8.818;2023-03-01T15:12:56;15.73;;;9.57;;
41966;SDS011;27656;53.068;8.818;2023-03-01T15:15:43;17.53;;;10.23;;
41966;SDS011;27656;53.068;8.818;2023-03-01T15:18:17;17.87;;;9.10;;
41966;SDS011;27656;53.068;8.818;2023-03-01T15:20:48;14.93;;;9.00;;
41966;SDS011;27656;53.068;8.818;2023-03-01T15:23:23;14.87;;;9.60;;
41966;SDS011;27656;53.068;8.818;2023-03-01T15:25:51;13.93;;;9.13;;
41966;SDS011;27656;53.068;8.818;2023-03-01T15:28:27;16.13;;;11.13;;
41966;SDS011;27656;53.068;8.818;2023-03-01T15:30:57;15.30;;;10.43;;
41966;SDS011;27656;53.068;8.818;2023-03-01T15:36:29;17.57;;;10.77;;
41966;SDS011;27656;53.068;8.818;2023-03-01T15:39:40;20.47;;;12.23;;
41966;SDS011;27656;53.068;8.818;2023-03-01T15:42:10;21.57;;;12.60;;
41966;SDS011;27656;53.068;8.818;2023-03-01T15:44:39;23.63;;;12.90;;
41966;SDS011;27656;53.068;8.818;2023-03-01T15:47:29;23.37;;;13.90;;
41966;SDS011;27656;53.068;8.818;2023-03-01T15:49:56;20.90;;;13.57;;
41966;SDS011;27656;53.068;8.818;2023-03-01T15:55:07;21.97;;;12.63;;
41966;SDS011;27656;53.068;8.818;2023-03-01T15:57:41;21.77;;;12.90;;
41966;SDS011;27656;53.068;8.818;2023-03-01T16:00:09;21.90;;;12.83;;
41966;SDS011;27656;53.068;8.818;2023-03-01T16:02:40;21.33;;;13.20;;
41966;SDS011;27656;53.068;8.818;2023-03-01T16:05:16;22.20;;;13.10;;
41966;SDS011;27656;53.068;8.818;2023-03-01T16:07:45;18.43;;;11.97;;
41966;SDS011;27656;53.068;8.818;2023-03-01T16:10:14;17.17;;;11.10;;
41966;SDS011;27656;53.068;8.818;2023-03-01T16:12:41;17.63;;;11.30;;
41966;SDS011;27656;53.068;8.818;2023-03-01T16:15:12;19.23;;;12.17;;
41966;SDS011;27656;53.068;8.818;2023-03-01T16:17:44;21.53;;;12.67;;
41966;SDS011;27656;53.068;8.818;2023-03-01T16:20:11;21.57;;;13.37;;
41966;SDS011;27656;53.068;8.818;2023-03-01T16:22:48;19.83;;;12.23;;
41966;SDS011;27656;53.068;8.818;2023-03-01T16:25:15;23.83;;;13.13;;
41966;SDS011;27656;53.068;8.818;2023-03-01T16:27:44;26.13;;;13.17;;